createdAt,value
2023-05-24T00:01:02.872Z,10.02
2023-05-24T00:03:34.965Z,10.90
2023-05-24T00:06:04.146Z,10.27
2023-05-24T00:08:32.885Z,9.80
2023-05-24T00:11:01.650Z,10.88
2023-05-24T00:13:30.145Z,10.60
2023-05-24T00:15:58.635Z,10.65
2023-05-24T00:18:27.126Z,10.65
2023-05-24T00:20:57.331Z,10.33
2023-05-24T00:23:26.103Z,10.50
2023-05-24T00:25:54.781Z,11.00
2023-05-24T00:28:23.245Z,10.38
2023-05-24T00:30:52.320Z,10.25
2023-05-24T00:33:23.380Z,10.80
2023-05-24T00:35:56.317Z,10.27
2023-05-24T00:38:27.293Z,10.82
2023-05-24T00:40:57.459Z,11.02
2023-05-24T00:43:26.015Z,10.10
2023-05-24T00:46:16.439Z,10.93
2023-05-24T00:48:46.127Z,10.45
2023-05-24T00:51:15.797Z,10.68
2023-05-24T00:53:49.867Z,11.35
2023-05-24T00:56:19.330Z,10.50
2023-05-24T00:58:50.490Z,10.43
2023-05-24T01:01:19.302Z,10.73
2023-05-24T01:03:48.243Z,10.07
2023-05-24T01:06:18.046Z,11.05
2023-05-24T01:09:21.349Z,10.63
2023-05-24T01:12:12.985Z,10.80
2023-05-24T01:14:56.999Z,10.60
2023-05-24T01:17:32.873Z,10.25
2023-05-24T01:20:08.309Z,9.73
2023-05-24T01:23:06.000Z,10.05
2023-05-24T01:25:53.947Z,9.60
2023-05-24T01:28:25.534Z,9.07
2023-05-24T01:30:54.432Z,9.45
2023-05-24T01:33:23.029Z,10.60
2023-05-24T01:35:51.667Z,9.80
2023-05-24T01:38:20.442Z,9.60
2023-05-24T01:40:55.562Z,9.73
2023-05-24T01:43:40.943Z,10.63
2023-05-24T01:46:26.027Z,10.55
2023-05-24T01:49:11.277Z,9.45
2023-05-24T01:51:47.032Z,9.77
2023-05-24T01:54:15.920Z,9.32
2023-05-24T01:56:47.622Z,8.85
2023-05-24T01:59:17.897Z,9.32
2023-05-24T02:01:46.854Z,8.50
2023-05-24T02:04:15.429Z,9.17
2023-05-24T02:06:43.944Z,9.15
2023-05-24T02:09:12.511Z,9.43
2023-05-24T02:11:41.264Z,9.23
2023-05-24T02:14:10.170Z,9.10
2023-05-24T02:16:43.674Z,9.47
2023-05-24T02:19:12.273Z,9.32
2023-05-24T02:21:41.250Z,9.38
2023-05-24T02:24:11.461Z,10.82
2023-05-24T02:26:40.145Z,9.60
2023-05-24T02:29:08.872Z,9.90
2023-05-24T02:31:37.451Z,10.05
2023-05-24T02:34:07.972Z,9.95
2023-05-24T02:36:37.378Z,9.18
2023-05-24T02:39:06.547Z,10.00
2023-05-24T02:41:35.055Z,9.83
2023-05-24T02:44:03.761Z,9.38
2023-05-24T02:46:32.315Z,8.43
2023-05-24T02:49:01.143Z,9.00
2023-05-24T02:51:32.724Z,9.57
2023-05-24T02:54:01.469Z,9.00
2023-05-24T02:56:30.768Z,9.25
2023-05-24T02:58:59.336Z,9.70
2023-05-24T03:01:28.147Z,9.95
2023-05-24T03:03:56.725Z,9.60
2023-05-24T03:06:25.487Z,9.57
2023-05-24T03:08:55.365Z,9.70
2023-05-24T03:11:24.091Z,9.48
2023-05-24T03:13:52.629Z,8.75
2023-05-24T03:16:21.507Z,9.57
2023-05-24T03:18:51.355Z,8.97
2023-05-24T03:21:21.101Z,9.70
2023-05-24T03:23:50.261Z,9.63
2023-05-24T03:26:20.897Z,8.77
2023-05-24T03:28:50.740Z,8.70
2023-05-24T03:31:21.246Z,9.13
2023-05-24T03:33:49.826Z,8.52
2023-05-24T03:36:18.419Z,8.55
2023-05-24T03:38:47.131Z,8.88
2023-05-24T03:41:15.718Z,8.35
2023-05-24T03:43:45.657Z,8.43
2023-05-24T03:46:14.202Z,7.50
2023-05-24T03:48:42.780Z,7.68
2023-05-24T03:51:11.360Z,7.70
2023-05-24T03:53:40.183Z,8.88
2023-05-24T03:56:08.715Z,8.30
2023-05-24T03:58:37.554Z,8.63
2023-05-24T04:01:08.232Z,8.23
2023-05-24T04:03:36.953Z,8.23
2023-05-24T04:06:05.692Z,7.95
2023-05-24T04:08:34.237Z,7.50
2023-05-24T04:11:02.717Z,7.63
2023-05-24T04:13:31.609Z,7.72
2023-05-24T04:16:00.163Z,7.85
2023-05-24T04:18:30.190Z,7.55
2023-05-24T04:20:58.781Z,7.90
2023-05-24T04:23:27.326Z,7.40
2023-05-24T04:25:55.957Z,7.90
2023-05-24T04:28:24.824Z,7.30
2023-05-24T04:30:53.914Z,7.88
2023-05-24T04:33:22.617Z,7.27
2023-05-24T04:35:53.350Z,7.50
2023-05-24T04:38:22.582Z,7.68
2023-05-24T04:40:51.377Z,7.78
2023-05-24T04:43:19.961Z,7.43
2023-05-24T04:45:48.736Z,7.50
2023-05-24T04:48:17.763Z,7.60
2023-05-24T04:50:46.527Z,7.07
2023-05-24T04:53:16.474Z,7.72
2023-05-24T04:55:45.279Z,7.70
2023-05-24T04:58:13.967Z,7.50
2023-05-24T05:00:43.258Z,7.80
2023-05-24T05:03:12.326Z,7.78
2023-05-24T05:05:41.269Z,7.38
2023-05-24T05:08:09.879Z,7.20
2023-05-24T05:10:39.998Z,7.60
2023-05-24T05:13:08.760Z,7.90
2023-05-24T05:15:37.265Z,7.32
2023-05-24T05:18:06.077Z,6.97
2023-05-24T05:20:34.729Z,6.80
2023-05-24T05:25:53.908Z,7.20
2023-05-24T05:28:22.660Z,24.65
2023-05-24T05:30:51.343Z,9.43
2023-05-24T05:33:19.858Z,6.90
2023-05-24T05:35:48.384Z,14.57
2023-05-24T05:38:17.440Z,8.40
2023-05-24T05:40:46.104Z,7.10
2023-05-24T05:43:16.291Z,6.30
2023-05-24T05:45:44.835Z,6.82
2023-05-24T05:48:13.362Z,6.50
2023-05-24T05:50:42.193Z,6.28
2023-05-24T05:53:10.957Z,6.45
2023-05-24T05:55:39.502Z,6.57
2023-05-24T05:58:08.012Z,6.63
2023-05-24T06:00:38.012Z,6.50
2023-05-24T06:03:06.595Z,6.20
2023-05-24T06:05:35.773Z,5.80
2023-05-24T06:08:04.310Z,5.88
2023-05-24T06:10:32.871Z,6.20
2023-05-24T06:13:04.589Z,6.40
2023-05-24T06:15:34.573Z,6.18
2023-05-24T06:18:05.317Z,6.20
2023-05-24T06:20:33.939Z,5.97
2023-05-24T06:23:02.977Z,7.10
2023-05-24T06:25:33.039Z,6.23
2023-05-24T06:28:01.593Z,5.90
2023-05-24T06:30:31.350Z,5.72
2023-05-24T06:33:01.001Z,5.72
2023-05-24T06:35:31.000Z,5.22
2023-05-24T06:38:00.591Z,5.60
2023-05-24T06:40:29.154Z,6.00
2023-05-24T06:42:58.802Z,5.60
2023-05-24T06:45:29.187Z,5.43
2023-05-24T06:47:58.295Z,5.70
2023-05-24T06:50:27.991Z,5.70
2023-05-24T06:52:57.958Z,5.43
2023-05-24T06:55:26.649Z,5.97
2023-05-24T06:57:56.981Z,5.13
2023-05-24T07:00:25.717Z,4.97
2023-05-24T07:02:54.535Z,5.13
2023-05-24T07:05:24.812Z,5.60
2023-05-24T07:07:53.338Z,5.53
2023-05-24T07:10:23.321Z,6.00
2023-05-24T07:12:52.280Z,5.47
2023-05-24T07:15:21.162Z,5.53
2023-05-24T07:17:49.707Z,6.03
2023-05-24T07:20:18.456Z,5.88
2023-05-24T07:22:47.517Z,5.22
2023-05-24T07:25:16.103Z,5.80
2023-05-24T07:27:46.004Z,5.43
2023-05-24T07:30:27.681Z,5.60
2023-05-24T07:32:59.840Z,5.38
2023-05-24T07:35:29.508Z,5.70
2023-05-24T07:37:58.111Z,6.13
2023-05-24T07:40:27.882Z,5.47
2023-05-24T07:42:57.881Z,5.68
2023-05-24T07:45:27.394Z,5.72
2023-05-24T07:47:57.217Z,5.63
2023-05-24T07:50:26.822Z,5.70
2023-05-24T07:52:55.945Z,5.43
2023-05-24T07:55:24.549Z,5.97
2023-05-24T07:57:53.069Z,5.68
2023-05-24T08:00:23.471Z,5.50
2023-05-24T08:02:53.634Z,5.18
2023-05-24T08:05:23.217Z,5.03
2023-05-24T08:07:52.303Z,5.50
2023-05-24T08:10:22.100Z,5.40
2023-05-24T08:12:51.714Z,5.45
2023-05-24T08:15:20.288Z,6.10
2023-05-24T08:17:50.322Z,6.20
2023-05-24T08:20:19.210Z,5.55
2023-05-24T08:22:48.561Z,5.72
2023-05-24T08:25:17.248Z,5.53
2023-05-24T08:27:45.945Z,5.15
2023-05-24T08:30:15.545Z,5.13
2023-05-24T08:32:44.138Z,5.07
2023-05-24T08:37:46.179Z,5.53
2023-05-24T08:40:14.910Z,5.78
2023-05-24T08:42:44.021Z,5.90
2023-05-24T08:45:16.137Z,5.47
2023-05-24T08:47:45.203Z,5.20
2023-05-24T08:50:15.334Z,5.30
2023-05-24T08:52:45.916Z,5.95
2023-05-24T08:55:14.672Z,5.10
2023-05-24T08:57:43.766Z,5.88
2023-05-24T09:00:14.103Z,5.80
2023-05-24T09:02:45.082Z,5.75
2023-05-24T09:05:18.286Z,5.43
2023-05-24T09:07:47.930Z,5.77
2023-05-24T09:10:16.926Z,5.95
2023-05-24T09:12:49.894Z,6.18
2023-05-24T09:15:18.597Z,6.00
2023-05-24T09:17:47.584Z,5.28
2023-05-24T09:20:17.548Z,5.73
2023-05-24T09:22:51.861Z,5.65
2023-05-24T09:25:22.598Z,5.80
2023-05-24T09:27:53.016Z,6.22
2023-05-24T09:30:22.307Z,5.40
2023-05-24T09:32:59.107Z,5.87
2023-05-24T09:35:29.880Z,6.13
2023-05-24T09:38:02.971Z,6.32
2023-05-24T09:40:32.348Z,5.63
2023-05-24T09:43:10.512Z,5.63
2023-05-24T09:45:47.428Z,6.37
2023-05-24T09:48:17.657Z,4.97
2023-05-24T09:51:02.143Z,5.65
2023-05-24T09:53:30.874Z,6.30
2023-05-24T09:55:59.533Z,6.07
2023-05-24T09:58:33.208Z,6.17
2023-05-24T10:01:11.035Z,5.93
2023-05-24T10:03:40.132Z,5.97
2023-05-24T10:06:13.955Z,6.10
2023-05-24T10:08:42.556Z,5.95
2023-05-24T10:11:11.111Z,6.03
2023-05-24T10:13:41.110Z,5.95
2023-05-24T10:16:10.065Z,6.00
2023-05-24T10:18:39.896Z,5.38
2023-05-24T10:21:11.052Z,5.78
2023-05-24T10:23:40.751Z,5.63
2023-05-24T10:26:11.920Z,6.25
2023-05-24T10:28:44.808Z,5.60
2023-05-24T10:31:17.141Z,5.20
2023-05-24T10:33:48.614Z,5.72
2023-05-24T10:36:19.803Z,5.40
2023-05-24T10:38:48.648Z,5.70
2023-05-24T10:41:19.560Z,6.10
2023-05-24T10:44:04.912Z,5.18
2023-05-24T10:46:36.960Z,5.85
2023-05-24T10:49:07.663Z,5.20
2023-05-24T10:51:39.006Z,5.43
2023-05-24T10:54:16.982Z,5.53
2023-05-24T10:56:50.239Z,5.55
2023-05-24T10:59:35.178Z,5.88
2023-05-24T11:02:04.279Z,5.93
2023-05-24T11:04:35.517Z,5.50
2023-05-24T11:07:09.664Z,5.88
2023-05-24T11:09:46.526Z,5.75
2023-05-24T11:12:18.013Z,5.55
2023-05-24T11:14:51.823Z,5.33
2023-05-24T11:17:23.104Z,5.20
2023-05-24T11:19:54.976Z,5.53
2023-05-24T11:22:26.913Z,5.40
2023-05-24T11:24:57.781Z,4.85
2023-05-24T11:27:26.810Z,5.27
2023-05-24T11:29:56.173Z,5.03
2023-05-24T11:32:25.230Z,5.32
2023-05-24T11:34:53.851Z,5.68
2023-05-24T11:37:34.865Z,5.53
2023-05-24T11:40:11.186Z,5.70
2023-05-24T11:42:40.325Z,5.68
2023-05-24T11:45:11.862Z,5.32
2023-05-24T11:47:41.255Z,6.25
2023-05-24T11:50:10.766Z,6.53
2023-05-24T11:52:41.705Z,5.30
2023-05-24T11:55:17.178Z,5.68
2023-05-24T11:57:54.687Z,5.35
2023-05-24T12:00:26.764Z,5.80
2023-05-24T12:03:02.615Z,5.70
2023-05-24T12:05:32.026Z,5.57
2023-05-24T12:08:06.121Z,5.05
2023-05-24T12:10:37.910Z,5.38
2023-05-24T12:13:07.730Z,5.75
2023-05-24T12:15:36.335Z,5.25
2023-05-24T12:18:05.039Z,5.67
2023-05-24T12:20:33.965Z,6.03
2023-05-24T12:23:02.897Z,5.65
2023-05-24T12:25:31.430Z,5.60
2023-05-24T12:28:01.352Z,5.78
2023-05-24T12:30:30.628Z,5.33
2023-05-24T12:33:00.006Z,5.05
2023-05-24T12:35:28.929Z,6.10
2023-05-24T12:38:01.426Z,5.60
2023-05-24T12:40:34.582Z,5.20
2023-05-24T12:43:06.024Z,5.67
2023-05-24T12:45:34.837Z,6.32
2023-05-24T12:48:05.226Z,5.55
2023-05-24T12:50:34.929Z,5.28
2023-05-24T12:53:03.693Z,6.18
2023-05-24T12:55:32.354Z,5.60
2023-05-24T12:58:02.728Z,6.00
2023-05-24T13:00:32.613Z,5.15
2023-05-24T13:03:01.206Z,5.40
2023-05-24T13:05:30.729Z,5.18
2023-05-24T13:07:59.713Z,5.80
2023-05-24T13:10:29.199Z,5.72
2023-05-24T13:12:57.753Z,5.50
2023-05-24T13:15:27.428Z,5.78
2023-05-24T13:17:57.418Z,5.90
2023-05-24T13:20:26.412Z,5.33
2023-05-24T13:22:55.004Z,5.80
2023-05-24T13:25:23.829Z,5.47
2023-05-24T13:27:52.641Z,5.78
2023-05-24T13:30:27.744Z,5.32
2023-05-24T13:32:59.010Z,6.07
2023-05-24T13:35:27.609Z,5.57
2023-05-24T13:37:58.084Z,4.90
2023-05-24T13:40:27.031Z,4.90
2023-05-24T13:42:58.587Z,5.18
2023-05-24T13:45:27.300Z,5.07
2023-05-24T13:48:03.935Z,5.80
2023-05-24T13:50:32.929Z,4.88
2023-05-24T13:53:02.197Z,4.38
2023-05-24T13:55:31.777Z,4.45
2023-05-24T13:58:01.689Z,4.50
2023-05-24T14:00:30.322Z,4.40
2023-05-24T14:03:00.370Z,4.28
2023-05-24T14:05:30.638Z,4.18
2023-05-24T14:08:00.462Z,4.70
2023-05-24T14:10:29.319Z,4.43
2023-05-24T14:13:16.188Z,3.88
2023-05-24T14:15:47.182Z,5.38
2023-05-24T14:18:17.284Z,4.50
2023-05-24T14:20:45.910Z,4.88
2023-05-24T14:23:14.771Z,4.20
2023-05-24T14:25:43.532Z,4.55
2023-05-24T14:28:13.746Z,4.10
2023-05-24T14:30:42.363Z,4.00
2023-05-24T14:33:12.154Z,3.60
2023-05-24T14:35:42.770Z,3.80
2023-05-24T14:38:12.620Z,3.88
2023-05-24T14:40:42.571Z,3.78
2023-05-24T14:43:11.359Z,3.50
2023-05-24T14:45:42.303Z,3.10
2023-05-24T14:48:12.649Z,2.93
2023-05-24T14:50:43.377Z,3.58
2023-05-24T14:53:13.082Z,3.20
2023-05-24T14:55:43.984Z,3.30
2023-05-24T14:58:14.146Z,3.78
2023-05-24T15:00:44.445Z,2.83
2023-05-24T15:03:14.944Z,3.50
2023-05-24T15:05:45.610Z,2.70
2023-05-24T15:08:14.274Z,3.25
2023-05-24T15:10:44.946Z,3.15
2023-05-24T15:13:14.186Z,2.93
2023-05-24T15:15:43.420Z,3.13
2023-05-24T15:18:12.062Z,2.70
2023-05-24T15:20:41.618Z,2.92
2023-05-24T15:23:11.838Z,3.08
2023-05-24T15:25:41.270Z,2.80
2023-05-24T15:28:10.788Z,3.45
2023-05-24T15:30:39.384Z,3.03
2023-05-24T15:33:08.017Z,3.15
2023-05-24T15:35:36.573Z,3.25
2023-05-24T15:38:05.366Z,2.83
2023-05-24T15:40:35.320Z,3.15
2023-05-24T15:43:03.891Z,3.30
2023-05-24T15:45:32.446Z,3.30
2023-05-24T15:48:02.620Z,3.35
2023-05-24T15:50:54.121Z,2.97
2023-05-24T15:53:21.582Z,3.35
2023-05-24T15:55:51.753Z,3.63
2023-05-24T15:58:20.504Z,3.63
2023-05-24T16:00:49.040Z,3.50
2023-05-24T16:03:17.964Z,3.43
2023-05-24T16:05:48.754Z,3.60
2023-05-24T16:08:18.381Z,3.65
2023-05-24T16:10:48.488Z,4.38
2023-05-24T16:13:18.411Z,3.97
2023-05-24T16:15:51.722Z,3.67
2023-05-24T16:18:22.519Z,3.90
2023-05-24T16:20:52.916Z,3.75
2023-05-24T16:23:23.918Z,3.83
2023-05-24T16:25:52.886Z,4.47
2023-05-24T16:28:24.792Z,4.63
2023-05-24T16:30:56.256Z,4.05
2023-05-24T16:33:25.662Z,4.72
2023-05-24T16:35:56.851Z,4.40
2023-05-24T16:38:26.752Z,4.47
2023-05-24T16:40:55.326Z,4.37
2023-05-24T16:43:25.989Z,4.43
2023-05-24T16:45:55.252Z,3.63
2023-05-24T16:48:28.535Z,4.40
2023-05-24T16:50:57.774Z,3.90
2023-05-24T16:53:27.487Z,4.40
2023-05-24T16:55:58.078Z,4.25
2023-05-24T16:58:29.762Z,4.30
2023-05-24T17:00:58.800Z,3.75
2023-05-24T17:03:29.573Z,3.85
2023-05-24T17:06:03.296Z,3.90
2023-05-24T17:08:35.132Z,4.03
2023-05-24T17:11:03.907Z,4.15
2023-05-24T17:13:34.653Z,3.92
2023-05-24T17:16:05.350Z,3.45
2023-05-24T17:18:33.887Z,3.40
2023-05-24T17:21:04.389Z,3.30
2023-05-24T17:23:34.881Z,3.50
2023-05-24T17:26:03.744Z,3.30
2023-05-24T17:28:36.510Z,3.58
2023-05-24T17:31:05.188Z,3.30
2023-05-24T17:33:33.704Z,3.30
2023-05-24T17:36:02.880Z,3.45
2023-05-24T17:38:33.341Z,4.07
2023-05-24T17:41:01.892Z,3.88
2023-05-24T17:43:32.714Z,3.57
2023-05-24T17:46:06.835Z,3.60
2023-05-24T17:48:37.638Z,3.25
2023-05-24T17:51:09.032Z,3.47
2023-05-24T17:53:41.001Z,3.65
2023-05-24T17:56:09.872Z,6.30
2023-05-24T17:58:38.423Z,4.40
2023-05-24T18:01:10.551Z,3.90
2023-05-24T18:03:40.925Z,4.65
2023-05-24T18:06:11.025Z,3.78
2023-05-24T18:08:43.465Z,4.30
2023-05-24T18:11:13.871Z,4.15
2023-05-24T18:13:45.149Z,4.15
2023-05-24T18:16:16.304Z,3.40
2023-05-24T18:18:44.823Z,3.75
2023-05-24T18:21:14.110Z,3.37
2023-05-24T18:23:43.900Z,3.40
2023-05-24T18:26:13.624Z,3.88
2023-05-24T18:28:42.679Z,3.50
2023-05-24T18:31:11.596Z,3.40
2023-05-24T18:33:41.914Z,3.77
2023-05-24T18:36:10.813Z,3.13
2023-05-24T18:38:40.246Z,3.50
2023-05-24T18:41:10.230Z,3.08
2023-05-24T18:43:39.040Z,3.70
2023-05-24T18:46:09.067Z,3.23
2023-05-24T18:48:37.617Z,3.03
2023-05-24T18:51:08.137Z,3.53
2023-05-24T18:53:36.980Z,3.42
2023-05-24T18:56:05.960Z,3.72
2023-05-24T18:58:34.506Z,3.20
2023-05-24T19:01:03.189Z,3.17
2023-05-24T19:03:31.741Z,3.20
2023-05-24T19:06:00.585Z,3.40
2023-05-24T19:08:30.783Z,2.90
2023-05-24T19:10:59.299Z,2.83
2023-05-24T19:13:27.882Z,2.92
2023-05-24T19:15:57.731Z,3.33
2023-05-24T19:18:26.274Z,3.50
2023-05-24T19:20:54.941Z,3.22
2023-05-24T19:23:23.517Z,3.37
2023-05-24T19:25:53.436Z,3.15
2023-05-24T19:28:21.937Z,3.80
2023-05-24T19:30:50.667Z,3.22
2023-05-24T19:33:19.243Z,3.35
2023-05-24T19:35:47.776Z,3.30
2023-05-24T19:38:17.853Z,3.60
2023-05-24T19:40:46.647Z,2.90
2023-05-24T19:43:16.590Z,3.10
2023-05-24T19:45:45.623Z,3.10
2023-05-24T19:48:14.492Z,3.90
2023-05-24T19:50:43.009Z,3.40
2023-05-24T19:53:11.546Z,3.35
2023-05-24T19:55:40.063Z,3.00
2023-05-24T19:58:08.596Z,2.95
2023-05-24T20:00:38.595Z,3.40
2023-05-24T20:03:07.343Z,3.00
2023-05-24T20:05:36.235Z,3.45
2023-05-24T20:08:05.169Z,3.22
2023-05-24T20:10:36.565Z,3.60
2023-05-24T20:13:05.261Z,3.53
2023-05-24T20:15:33.847Z,3.50
2023-05-24T20:18:03.782Z,3.60
2023-05-24T20:20:32.803Z,3.22
2023-05-24T20:23:01.452Z,3.53
2023-05-24T20:25:29.947Z,3.60
2023-05-24T20:27:58.463Z,3.67
2023-05-24T20:30:27.229Z,3.60
2023-05-24T20:32:56.022Z,3.40
2023-05-24T20:35:26.023Z,3.50
2023-05-24T20:37:54.770Z,3.77
2023-05-24T20:40:25.134Z,3.30
2023-05-24T20:42:53.855Z,3.15
2023-05-24T20:45:22.515Z,3.22
2023-05-24T20:47:51.212Z,3.50
2023-05-24T20:50:19.982Z,2.90
2023-05-24T20:52:49.885Z,3.08
2023-05-24T20:55:18.979Z,3.60
2023-05-24T20:57:47.943Z,3.50
2023-05-24T21:00:17.475Z,4.10
2023-05-24T21:02:46.183Z,3.75
2023-05-24T21:05:14.794Z,4.50
2023-05-24T21:07:43.359Z,4.22
2023-05-24T21:10:18.522Z,4.53
2023-05-24T21:12:48.189Z,4.30
2023-05-24T21:15:17.146Z,4.30
2023-05-24T21:17:45.916Z,4.60
2023-05-24T21:20:14.524Z,4.50
2023-05-24T21:22:43.634Z,4.45
2023-05-24T21:25:13.551Z,4.50
2023-05-24T21:27:42.043Z,4.38
2023-05-24T21:30:12.141Z,4.38
2023-05-24T21:32:40.723Z,5.10
2023-05-24T21:35:10.127Z,5.32
2023-05-24T21:37:38.676Z,5.07
2023-05-24T21:40:08.638Z,4.65
2023-05-24T21:42:38.533Z,3.95
2023-05-24T21:45:08.878Z,5.00
2023-05-24T21:47:37.475Z,4.88
2023-05-24T21:50:06.956Z,5.00
2023-05-24T21:52:35.476Z,4.22
2023-05-24T21:55:04.120Z,4.38
2023-05-24T21:57:32.899Z,4.50
2023-05-24T22:00:04.205Z,4.60
2023-05-24T22:02:33.026Z,3.83
2023-05-24T22:05:01.555Z,4.43
2023-05-24T22:07:30.154Z,3.97
2023-05-24T22:09:58.762Z,3.97
2023-05-24T22:12:27.488Z,4.00
2023-05-24T22:14:56.028Z,3.50
2023-05-24T22:17:26.765Z,3.42
2023-05-24T22:19:55.533Z,3.83
2023-05-24T22:22:24.243Z,3.90
2023-05-24T22:24:52.818Z,3.78
2023-05-24T22:27:21.335Z,4.20
2023-05-24T22:29:50.163Z,3.53
2023-05-24T22:32:18.883Z,4.18
2023-05-24T22:34:48.828Z,4.05
2023-05-24T22:37:17.677Z,3.40
2023-05-24T22:39:46.339Z,3.67
2023-05-24T22:42:14.863Z,3.58
2023-05-24T22:44:43.421Z,3.05
2023-05-24T22:47:14.036Z,4.38
2023-05-24T22:49:43.145Z,3.20
2023-05-24T22:52:13.023Z,3.20
2023-05-24T22:54:42.646Z,3.10
2023-05-24T22:57:11.236Z,3.05
2023-05-24T22:59:39.980Z,2.78
2023-05-24T23:02:08.510Z,3.08
2023-05-24T23:04:38.142Z,2.88
2023-05-24T23:07:07.131Z,2.90
2023-05-24T23:09:37.295Z,2.95
2023-05-24T23:12:08.491Z,2.95
2023-05-24T23:14:39.208Z,2.47
2023-05-24T23:17:10.374Z,2.83
2023-05-24T23:19:42.673Z,3.08
2023-05-24T23:22:12.217Z,2.40
2023-05-24T23:24:43.873Z,2.33
2023-05-24T23:27:12.437Z,2.50
2023-05-24T23:29:41.156Z,2.50
2023-05-24T23:32:10.370Z,2.35
2023-05-24T23:34:38.951Z,2.10
2023-05-24T23:37:07.510Z,2.17
2023-05-24T23:39:36.262Z,2.35
2023-05-24T23:42:07.030Z,3.00
2023-05-24T23:44:36.334Z,2.20
2023-05-24T23:47:05.157Z,2.78
2023-05-24T23:49:33.780Z,2.47
2023-05-24T23:52:02.327Z,2.20
2023-05-24T23:54:30.895Z,2.50
2023-05-24T23:56:59.650Z,2.40
2023-05-24T23:59:29.559Z,2.10
